createdAt,value
2023-09-10T00:01:17.126Z,22.60
2023-09-10T00:03:45.018Z,22.60
2023-09-10T00:06:12.164Z,22.50
2023-09-10T00:08:39.424Z,22.50
2023-09-10T00:11:06.886Z,22.50
2023-09-10T00:13:34.601Z,22.50
2023-09-10T00:16:01.898Z,22.40
2023-09-10T00:18:29.041Z,22.40
2023-09-10T00:20:56.128Z,22.40
2023-09-10T00:23:23.322Z,22.40
2023-09-10T00:25:50.469Z,22.40
2023-09-10T00:28:17.633Z,22.30
2023-09-10T00:30:44.803Z,22.30
2023-09-10T00:33:11.954Z,22.30
2023-09-10T00:35:39.101Z,22.30
2023-09-10T00:38:06.365Z,22.30
2023-09-10T00:40:33.630Z,22.30
2023-09-10T00:43:00.830Z,22.20
2023-09-10T00:45:28.350Z,22.20
2023-09-10T00:47:55.750Z,22.20
2023-09-10T00:50:23.915Z,22.20
2023-09-10T00:52:56.504Z,22.20
2023-09-10T00:55:24.959Z,22.10
2023-09-10T00:57:52.084Z,22.10
2023-09-10T01:00:21.518Z,22.20
2023-09-10T01:02:50.864Z,22.10
2023-09-10T01:05:21.980Z,22.10
2023-09-10T01:07:51.216Z,22.10
2023-09-10T01:10:18.572Z,22.10
2023-09-10T01:13:10.696Z,22.10
2023-09-10T01:16:00.636Z,22.00
2023-09-10T01:18:44.545Z,22.00
2023-09-10T01:21:32.109Z,22.00
2023-09-10T01:24:19.796Z,22.00
2023-09-10T01:26:58.309Z,22.00
2023-09-10T01:29:25.420Z,22.00
2023-09-10T01:31:59.373Z,21.90
2023-09-10T01:34:31.966Z,21.90
2023-09-10T01:37:09.747Z,21.90
2023-09-10T01:39:41.847Z,21.90
2023-09-10T01:42:10.092Z,21.90
2023-09-10T01:44:38.979Z,21.90
2023-09-10T01:47:06.250Z,21.90
2023-09-10T01:49:33.775Z,21.90
2023-09-10T01:52:00.957Z,21.90
2023-09-10T01:54:28.031Z,21.90
2023-09-10T01:56:55.101Z,21.80
2023-09-10T01:59:22.195Z,21.80
2023-09-10T02:01:49.415Z,21.80
2023-09-10T02:04:16.801Z,21.80
2023-09-10T02:06:43.995Z,21.80
2023-09-10T02:09:11.069Z,21.80
2023-09-10T02:11:38.197Z,21.80
2023-09-10T02:14:05.413Z,21.80
2023-09-10T02:16:32.672Z,21.70
2023-09-10T02:18:59.859Z,21.70
2023-09-10T02:21:26.928Z,21.70
2023-09-10T02:23:53.998Z,21.70
2023-09-10T02:26:21.042Z,21.60
2023-09-10T02:28:48.248Z,21.70
2023-09-10T02:31:15.344Z,21.60
2023-09-10T02:33:42.473Z,21.60
2023-09-10T02:36:09.612Z,21.60
2023-09-10T02:38:36.990Z,21.50
2023-09-10T02:41:04.594Z,21.50
2023-09-10T02:43:31.745Z,21.50
2023-09-10T02:45:58.956Z,21.50
2023-09-10T02:48:26.116Z,21.50
2023-09-10T02:50:55.281Z,21.50
2023-09-10T02:53:22.362Z,21.50
2023-09-10T02:55:58.934Z,21.50
2023-09-10T02:58:26.155Z,21.50
2023-09-10T03:00:54.675Z,21.50
2023-09-10T03:03:21.976Z,21.50
2023-09-10T03:05:49.169Z,21.40
2023-09-10T03:08:16.304Z,21.40
2023-09-10T03:10:43.477Z,21.40
2023-09-10T03:13:10.669Z,21.40
2023-09-10T03:15:37.719Z,21.40
2023-09-10T03:18:05.170Z,21.40
2023-09-10T03:20:32.907Z,21.40
2023-09-10T03:23:00.599Z,21.40
2023-09-10T03:25:27.748Z,21.40
2023-09-10T03:27:55.152Z,21.40
2023-09-10T03:30:22.293Z,21.40
2023-09-10T03:32:53.148Z,21.40
2023-09-10T03:35:20.477Z,21.30
2023-09-10T03:37:47.717Z,21.30
2023-09-10T03:40:15.634Z,21.30
2023-09-10T03:42:42.803Z,21.30
2023-09-10T03:45:10.437Z,21.30
2023-09-10T03:47:38.864Z,21.30
2023-09-10T03:50:06.647Z,21.20
2023-09-10T03:52:33.819Z,21.20
2023-09-10T03:55:00.936Z,21.20
2023-09-10T03:57:28.070Z,21.20
2023-09-10T03:59:55.232Z,21.20
2023-09-10T04:02:22.469Z,21.20
2023-09-10T04:04:49.684Z,21.20
2023-09-10T04:07:16.826Z,21.20
2023-09-10T04:09:44.021Z,21.20
2023-09-10T04:12:11.083Z,21.20
2023-09-10T04:14:38.177Z,21.20
2023-09-10T04:17:05.454Z,21.20
2023-09-10T04:19:32.693Z,21.20
2023-09-10T04:21:59.815Z,21.10
2023-09-10T04:24:26.870Z,21.10
2023-09-10T04:26:54.155Z,21.10
2023-09-10T04:29:23.389Z,21.10
2023-09-10T04:31:50.635Z,21.10
2023-09-10T04:34:17.875Z,21.10
2023-09-10T04:36:44.961Z,21.10
2023-09-10T04:39:12.062Z,21.10
2023-09-10T04:41:39.441Z,21.00
2023-09-10T04:44:07.324Z,21.00
2023-09-10T04:46:34.526Z,21.00
2023-09-10T04:49:01.738Z,21.00
2023-09-10T04:51:28.860Z,21.00
2023-09-10T04:53:56.319Z,20.90
2023-09-10T04:56:23.726Z,20.90
2023-09-10T04:58:50.925Z,20.90
2023-09-10T05:01:18.615Z,20.90
2023-09-10T05:03:46.526Z,20.90
2023-09-10T05:06:14.743Z,20.90
2023-09-10T05:08:42.035Z,20.90
2023-09-10T05:11:09.285Z,20.90
2023-09-10T05:13:37.502Z,20.90
2023-09-10T05:16:05.336Z,20.90
2023-09-10T05:18:32.469Z,20.90
2023-09-10T05:20:59.573Z,20.90
2023-09-10T05:23:30.155Z,20.90
2023-09-10T05:25:57.541Z,20.90
2023-09-10T05:28:24.652Z,20.80
2023-09-10T05:30:51.726Z,20.90
2023-09-10T05:33:18.914Z,20.90
2023-09-10T05:35:56.179Z,20.90
2023-09-10T05:38:23.737Z,20.90
2023-09-10T05:40:51.094Z,20.90
2023-09-10T05:43:18.479Z,20.90
2023-09-10T05:45:48.791Z,20.90
2023-09-10T05:48:15.912Z,21.00
2023-09-10T05:50:43.675Z,21.00
2023-09-10T05:53:10.839Z,21.00
2023-09-10T05:55:42.119Z,21.00
2023-09-10T05:58:09.547Z,21.00
2023-09-10T06:00:36.675Z,21.00
2023-09-10T06:03:05.296Z,21.10
2023-09-10T06:05:32.513Z,21.10
2023-09-10T06:07:59.666Z,21.20
2023-09-10T06:10:26.835Z,21.20
2023-09-10T06:12:53.813Z,21.20
2023-09-10T06:15:21.038Z,21.20
2023-09-10T06:17:48.154Z,21.30
2023-09-10T06:20:15.951Z,21.30
2023-09-10T06:22:43.140Z,21.40
2023-09-10T06:25:10.340Z,21.40
2023-09-10T06:27:37.667Z,21.40
2023-09-10T06:30:05.190Z,21.40
2023-09-10T06:32:32.282Z,21.50
2023-09-10T06:34:59.487Z,21.60
2023-09-10T06:37:26.627Z,21.60
2023-09-10T06:39:53.747Z,21.70
2023-09-10T06:42:22.831Z,21.70
2023-09-10T06:44:50.286Z,21.80
2023-09-10T06:47:17.459Z,21.80
2023-09-10T06:49:44.566Z,21.90
2023-09-10T06:52:11.532Z,21.90
2023-09-10T06:54:38.551Z,22.00
2023-09-10T06:57:05.641Z,22.10
2023-09-10T06:59:32.715Z,22.10
2023-09-10T07:01:59.787Z,22.20
2023-09-10T07:04:28.060Z,22.20
2023-09-10T07:06:55.365Z,22.30
2023-09-10T07:09:24.066Z,22.40
2023-09-10T07:11:55.349Z,22.40
2023-09-10T07:14:23.814Z,22.50
2023-09-10T07:16:50.927Z,22.50
2023-09-10T07:19:17.981Z,22.60
2023-09-10T07:21:45.071Z,22.70
2023-09-10T07:24:12.829Z,22.70
2023-09-10T07:26:40.534Z,22.80
2023-09-10T07:29:08.753Z,22.90
2023-09-10T07:31:36.548Z,23.00
2023-09-10T07:34:04.281Z,23.10
2023-09-10T07:36:31.455Z,23.10
2023-09-10T07:38:58.614Z,23.20
2023-09-10T07:41:25.692Z,23.20
2023-09-10T07:43:52.813Z,23.30
2023-09-10T07:46:19.921Z,23.40
2023-09-10T07:48:47.090Z,23.50
2023-09-10T07:51:14.118Z,23.50
2023-09-10T07:53:41.201Z,23.60
2023-09-10T07:56:08.388Z,23.70
2023-09-10T07:58:35.527Z,23.80
2023-09-10T08:01:02.981Z,23.90
2023-09-10T08:03:30.348Z,23.90
2023-09-10T08:05:57.481Z,24.10
2023-09-10T08:08:24.706Z,24.10
2023-09-10T08:10:51.853Z,24.20
2023-09-10T08:13:19.054Z,24.30
2023-09-10T08:15:46.395Z,24.40
2023-09-10T08:18:14.232Z,24.50
2023-09-10T08:20:43.368Z,24.60
2023-09-10T08:23:11.164Z,24.70
2023-09-10T08:25:38.503Z,24.80
2023-09-10T08:28:05.815Z,24.90
2023-09-10T08:30:33.051Z,25.00
2023-09-10T08:33:00.223Z,25.00
2023-09-10T08:35:46.945Z,25.10
2023-09-10T08:38:14.256Z,25.20
2023-09-10T08:40:51.038Z,25.30
2023-09-10T08:43:22.261Z,25.40
2023-09-10T08:45:50.628Z,25.50
2023-09-10T08:48:20.061Z,25.60
2023-09-10T08:50:48.468Z,25.70
2023-09-10T08:53:17.614Z,25.80
2023-09-10T08:55:47.643Z,25.90
2023-09-10T08:58:15.806Z,26.00
2023-09-10T09:00:45.120Z,26.00
2023-09-10T09:03:13.513Z,26.20
2023-09-10T09:05:41.872Z,26.30
2023-09-10T09:08:19.820Z,26.40
2023-09-10T09:10:47.781Z,26.50
2023-09-10T09:13:16.399Z,26.60
2023-09-10T09:15:43.751Z,26.70
2023-09-10T09:18:16.019Z,26.90
2023-09-10T09:20:47.153Z,27.00
2023-09-10T09:23:22.385Z,27.10
2023-09-10T09:25:50.633Z,27.20
2023-09-10T09:28:20.016Z,27.30
2023-09-10T09:30:47.446Z,27.40
2023-09-10T09:33:14.807Z,27.50
2023-09-10T09:35:42.220Z,27.60
2023-09-10T09:38:15.418Z,27.70
2023-09-10T09:40:43.024Z,27.80
2023-09-10T09:43:19.384Z,27.90
2023-09-10T09:45:48.290Z,28.00
2023-09-10T09:48:15.499Z,28.10
2023-09-10T09:50:42.645Z,28.30
2023-09-10T09:53:12.541Z,28.30
2023-09-10T09:55:41.775Z,28.40
2023-09-10T09:58:08.906Z,28.50
2023-09-10T10:00:38.459Z,28.60
2023-09-10T10:03:06.806Z,28.70
2023-09-10T10:05:35.034Z,28.80
2023-09-10T10:08:02.254Z,28.90
2023-09-10T10:10:29.511Z,29.00
2023-09-10T10:12:57.927Z,29.10
2023-09-10T10:15:26.237Z,29.20
2023-09-10T10:17:54.717Z,29.30
2023-09-10T10:20:22.995Z,29.40
2023-09-10T10:22:51.307Z,29.40
2023-09-10T10:25:18.545Z,29.60
2023-09-10T10:27:47.918Z,29.60
2023-09-10T10:30:15.233Z,29.60
2023-09-10T10:32:46.565Z,29.70
2023-09-10T10:35:14.692Z,29.80
2023-09-10T10:37:47.036Z,29.90
2023-09-10T10:40:24.805Z,30.00
2023-09-10T10:43:04.652Z,30.10
2023-09-10T10:45:34.442Z,30.20
2023-09-10T10:48:08.588Z,30.30
2023-09-10T10:50:38.086Z,30.30
2023-09-10T10:53:18.862Z,30.40
2023-09-10T10:55:46.994Z,30.50
2023-09-10T10:58:14.473Z,30.60
2023-09-10T11:00:41.498Z,30.70
2023-09-10T11:03:10.403Z,30.80
2023-09-10T11:05:55.951Z,30.90
2023-09-10T11:08:33.462Z,31.00
2023-09-10T11:11:02.664Z,31.10
2023-09-10T11:13:29.712Z,31.20
2023-09-10T11:16:06.094Z,31.20
2023-09-10T11:18:36.327Z,31.30
2023-09-10T11:21:07.745Z,31.40
2023-09-10T11:23:41.648Z,31.40
2023-09-10T11:26:15.212Z,31.50
2023-09-10T11:28:56.154Z,31.60
2023-09-10T11:31:36.548Z,31.60
2023-09-10T11:34:18.867Z,31.60
2023-09-10T11:36:55.666Z,31.60
2023-09-10T11:39:23.558Z,31.60
2023-09-10T11:41:55.018Z,31.60
2023-09-10T11:44:22.476Z,31.60
2023-09-10T11:46:53.015Z,31.60
2023-09-10T11:49:20.752Z,31.60
2023-09-10T11:51:59.406Z,31.70
2023-09-10T11:54:27.001Z,31.70
2023-09-10T11:56:59.339Z,31.80
2023-09-10T11:59:31.909Z,31.90
2023-09-10T12:02:00.233Z,32.00
2023-09-10T12:04:31.714Z,32.00
2023-09-10T12:06:59.375Z,32.10
2023-09-10T12:09:31.222Z,32.10
2023-09-10T12:12:04.029Z,32.10
2023-09-10T12:14:31.365Z,32.20
2023-09-10T12:16:58.852Z,32.30
2023-09-10T12:19:28.828Z,32.30
2023-09-10T12:21:59.051Z,32.40
2023-09-10T12:24:29.373Z,32.50
2023-09-10T12:26:56.506Z,32.50
2023-09-10T12:29:23.988Z,32.60
2023-09-10T12:31:54.441Z,32.60
2023-09-10T12:34:21.765Z,32.70
2023-09-10T12:36:48.878Z,32.70
2023-09-10T12:39:23.700Z,32.80
2023-09-10T12:41:54.914Z,32.80
2023-09-10T12:44:22.538Z,32.70
2023-09-10T12:46:50.673Z,32.80
2023-09-10T12:49:18.081Z,32.90
2023-09-10T12:51:45.721Z,32.90
2023-09-10T12:54:13.653Z,32.90
2023-09-10T12:56:42.429Z,32.90
2023-09-10T12:59:10.846Z,32.80
2023-09-10T13:01:41.516Z,32.90
2023-09-10T13:04:08.609Z,32.90
2023-09-10T13:06:35.779Z,32.90
2023-09-10T13:09:05.428Z,32.80
2023-09-10T13:11:33.041Z,32.80
2023-09-10T13:14:02.464Z,32.90
2023-09-10T13:16:30.861Z,32.90
2023-09-10T13:18:58.103Z,33.00
2023-09-10T13:21:25.329Z,33.00
2023-09-10T13:23:52.412Z,33.10
2023-09-10T13:26:20.232Z,33.10
2023-09-10T13:28:47.349Z,33.20
2023-09-10T13:31:15.717Z,33.40
2023-09-10T13:33:43.080Z,33.40
2023-09-10T13:36:11.725Z,33.40
2023-09-10T13:38:38.998Z,33.50
2023-09-10T13:41:06.168Z,33.50
2023-09-10T13:43:34.508Z,33.50
2023-09-10T13:46:01.957Z,33.50
2023-09-10T13:48:29.261Z,33.60
2023-09-10T13:50:56.598Z,33.60
2023-09-10T13:53:24.794Z,33.60
2023-09-10T13:55:52.054Z,33.60
2023-09-10T13:58:20.659Z,33.60
2023-09-10T14:00:47.777Z,33.50
2023-09-10T14:03:15.085Z,33.60
2023-09-10T14:05:42.615Z,33.70
2023-09-10T14:08:09.753Z,33.60
2023-09-10T14:10:36.904Z,33.70
2023-09-10T14:13:04.034Z,33.80
2023-09-10T14:15:31.117Z,33.90
2023-09-10T14:17:58.338Z,33.90
2023-09-10T14:20:25.627Z,33.90
2023-09-10T14:22:53.536Z,34.00
2023-09-10T14:25:20.634Z,34.00
2023-09-10T14:27:48.360Z,34.00
2023-09-10T14:30:16.790Z,34.10
2023-09-10T14:32:43.961Z,34.10
2023-09-10T14:35:11.244Z,34.20
2023-09-10T14:37:38.339Z,34.20
2023-09-10T14:40:05.830Z,34.20
2023-09-10T14:42:33.751Z,34.30
2023-09-10T14:45:00.926Z,34.30
2023-09-10T14:47:28.091Z,34.40
2023-09-10T14:49:55.224Z,34.30
2023-09-10T14:52:22.440Z,34.30
2023-09-10T14:54:49.554Z,34.30
2023-09-10T14:57:16.695Z,34.30
2023-09-10T14:59:43.790Z,34.30
2023-09-10T15:02:10.862Z,34.30
2023-09-10T15:04:37.952Z,34.30
2023-09-10T15:07:05.120Z,34.30
2023-09-10T15:09:32.212Z,34.30
2023-09-10T15:11:59.412Z,34.30
2023-09-10T15:14:26.493Z,34.30
2023-09-10T15:16:53.542Z,34.30
2023-09-10T15:19:21.185Z,34.30
2023-09-10T15:21:48.721Z,34.30
2023-09-10T15:24:15.757Z,34.30
2023-09-10T15:26:43.090Z,34.20
2023-09-10T15:29:10.260Z,34.20
2023-09-10T15:31:38.635Z,34.10
2023-09-10T15:34:07.338Z,34.00
2023-09-10T15:36:35.562Z,33.90
2023-09-10T15:39:03.899Z,33.90
2023-09-10T15:41:34.612Z,33.80
2023-09-10T15:44:01.768Z,33.80
2023-09-10T15:46:29.198Z,33.80
2023-09-10T15:49:00.846Z,33.80
2023-09-10T15:51:27.885Z,33.80
2023-09-10T15:53:54.909Z,33.90
2023-09-10T15:56:22.136Z,33.80
2023-09-10T15:58:49.200Z,33.80
2023-09-10T16:01:16.419Z,33.80
2023-09-10T16:03:43.859Z,33.80
2023-09-10T16:06:14.048Z,33.80
2023-09-10T16:08:41.148Z,33.80
2023-09-10T16:11:09.766Z,33.80
2023-09-10T16:13:37.152Z,33.80
2023-09-10T16:16:04.391Z,33.90
2023-09-10T16:18:31.659Z,33.80
2023-09-10T16:20:59.609Z,33.80
2023-09-10T16:23:27.539Z,33.70
2023-09-10T16:25:54.894Z,33.70
2023-09-10T16:28:21.892Z,33.60
2023-09-10T16:30:49.007Z,33.60
2023-09-10T16:33:16.303Z,33.50
2023-09-10T16:35:45.092Z,33.50
2023-09-10T16:38:13.830Z,33.50
2023-09-10T16:40:41.031Z,33.40
2023-09-10T16:43:08.076Z,33.40
2023-09-10T16:45:35.189Z,33.30
2023-09-10T16:48:02.300Z,33.30
2023-09-10T16:50:29.511Z,33.20
2023-09-10T16:52:56.830Z,33.10
2023-09-10T16:55:23.829Z,33.00
2023-09-10T16:57:50.906Z,33.00
2023-09-10T17:00:18.254Z,32.90
2023-09-10T17:02:45.706Z,32.80
2023-09-10T17:05:13.183Z,32.70
2023-09-10T17:07:43.685Z,32.60
2023-09-10T17:10:11.116Z,32.60
2023-09-10T17:12:38.207Z,32.50
2023-09-10T17:15:05.955Z,32.40
2023-09-10T17:17:39.502Z,32.40
2023-09-10T17:20:07.613Z,32.30
2023-09-10T17:22:36.866Z,32.20
2023-09-10T17:25:04.504Z,32.10
2023-09-10T17:27:31.675Z,32.00
2023-09-10T17:29:58.964Z,32.00
2023-09-10T17:32:26.301Z,31.90
2023-09-10T17:34:53.481Z,31.80
2023-09-10T17:37:23.917Z,31.70
2023-09-10T17:39:54.798Z,31.70
2023-09-10T17:42:22.057Z,31.70
2023-09-10T17:44:52.319Z,31.60
2023-09-10T17:47:28.302Z,31.50
2023-09-10T17:50:06.273Z,31.40
2023-09-10T17:52:35.120Z,31.30
2023-09-10T17:55:06.414Z,31.10
2023-09-10T17:57:34.764Z,31.00
2023-09-10T18:00:02.193Z,30.80
2023-09-10T18:02:30.770Z,30.60
2023-09-10T18:04:58.141Z,30.50
2023-09-10T18:07:25.239Z,30.40
2023-09-10T18:09:54.593Z,30.20
2023-09-10T18:12:21.817Z,30.10
2023-09-10T18:14:48.934Z,30.00
2023-09-10T18:17:16.822Z,29.90
2023-09-10T18:19:44.649Z,29.70
2023-09-10T18:22:12.564Z,29.60
2023-09-10T18:24:39.588Z,29.50
2023-09-10T18:27:06.717Z,29.30
2023-09-10T18:29:33.872Z,29.20
2023-09-10T18:32:01.124Z,29.10
2023-09-10T18:34:29.422Z,28.90
2023-09-10T18:36:57.942Z,28.80
2023-09-10T18:39:27.753Z,28.70
2023-09-10T18:41:54.852Z,28.60
2023-09-10T18:44:22.027Z,28.50
2023-09-10T18:46:58.765Z,28.40
2023-09-10T18:49:25.824Z,28.30
2023-09-10T18:52:06.266Z,28.30
2023-09-10T18:54:33.864Z,28.20
2023-09-10T18:57:02.311Z,28.10
2023-09-10T18:59:31.062Z,28.00
2023-09-10T19:01:58.734Z,28.00
2023-09-10T19:04:26.199Z,27.80
2023-09-10T19:06:54.105Z,27.80
2023-09-10T19:09:21.165Z,27.70
2023-09-10T19:11:48.659Z,27.70
2023-09-10T19:14:16.117Z,27.60
2023-09-10T19:16:46.740Z,27.50
2023-09-10T19:19:13.883Z,27.40
2023-09-10T19:21:41.039Z,27.40
2023-09-10T19:24:08.391Z,27.30
2023-09-10T19:26:35.571Z,27.30
2023-09-10T19:29:02.848Z,27.20
2023-09-10T19:31:32.780Z,27.20
2023-09-10T19:34:04.368Z,27.10
2023-09-10T19:36:35.014Z,27.10
2023-09-10T19:39:07.528Z,27.00
2023-09-10T19:41:39.619Z,26.90
2023-09-10T19:44:09.312Z,26.90
2023-09-10T19:46:37.746Z,26.80
2023-09-10T19:49:05.028Z,26.80
2023-09-10T19:51:32.276Z,26.70
2023-09-10T19:53:59.467Z,26.70
2023-09-10T19:56:28.463Z,26.70
2023-09-10T19:59:06.301Z,26.60
2023-09-10T20:01:40.066Z,26.60
2023-09-10T20:04:07.656Z,26.50
2023-09-10T20:06:37.956Z,26.50
2023-09-10T20:09:05.984Z,26.40
2023-09-10T20:11:33.349Z,26.40
2023-09-10T20:14:01.615Z,26.40
2023-09-10T20:16:28.756Z,26.30
2023-09-10T20:18:55.993Z,26.30
2023-09-10T20:21:23.998Z,26.20
2023-09-10T20:23:51.392Z,26.20
2023-09-10T20:26:18.726Z,26.20
2023-09-10T20:28:45.990Z,26.10
2023-09-10T20:31:13.222Z,26.10
2023-09-10T20:33:40.528Z,26.10
2023-09-10T20:36:08.880Z,26.00
2023-09-10T20:38:36.351Z,26.00
2023-09-10T20:41:13.669Z,26.00
2023-09-10T20:43:41.483Z,25.90
2023-09-10T20:46:09.385Z,25.80
2023-09-10T20:48:36.549Z,25.80
2023-09-10T20:51:07.980Z,25.70
2023-09-10T20:53:36.448Z,25.70
2023-09-10T20:56:04.239Z,25.70
2023-09-10T20:58:31.298Z,25.70
2023-09-10T21:00:59.463Z,25.60
2023-09-10T21:03:29.682Z,25.60
2023-09-10T21:06:01.052Z,25.50
2023-09-10T21:08:29.137Z,25.50
2023-09-10T21:10:57.359Z,25.50
2023-09-10T21:13:24.698Z,25.50
2023-09-10T21:15:53.384Z,25.40
2023-09-10T21:18:20.750Z,25.40
2023-09-10T21:20:48.275Z,25.30
2023-09-10T21:23:15.441Z,25.30
2023-09-10T21:25:43.095Z,25.30
2023-09-10T21:28:10.599Z,25.30
2023-09-10T21:30:37.804Z,25.30
2023-09-10T21:33:06.228Z,25.20
2023-09-10T21:35:33.790Z,25.20
2023-09-10T21:38:01.126Z,25.10
2023-09-10T21:40:28.253Z,25.10
2023-09-10T21:42:55.437Z,25.10
2023-09-10T21:45:22.621Z,25.00
2023-09-10T21:47:50.222Z,24.90
2023-09-10T21:50:17.547Z,24.90
2023-09-10T21:52:44.638Z,24.90
2023-09-10T21:55:11.699Z,24.90
2023-09-10T21:57:39.729Z,24.90
2023-09-10T22:00:08.603Z,24.80
2023-09-10T22:02:35.905Z,24.90
2023-09-10T22:05:03.171Z,24.80
2023-09-10T22:07:30.253Z,24.90
2023-09-10T22:09:57.522Z,24.90
2023-09-10T22:12:24.775Z,24.80
2023-09-10T22:14:54.454Z,24.80
2023-09-10T22:17:21.848Z,24.80
2023-09-10T22:19:48.993Z,24.80
2023-09-10T22:22:16.146Z,24.80
2023-09-10T22:24:43.242Z,24.80
2023-09-10T22:27:10.391Z,24.70
2023-09-10T22:29:37.527Z,24.70
2023-09-10T22:32:04.944Z,24.70
2023-09-10T22:34:33.900Z,24.60
2023-09-10T22:37:01.039Z,24.60
2023-09-10T22:39:28.155Z,24.60
2023-09-10T22:41:55.291Z,24.60
2023-09-10T22:44:22.453Z,24.50
2023-09-10T22:46:49.581Z,24.50
2023-09-10T22:49:16.736Z,24.50
2023-09-10T22:51:46.738Z,24.40
2023-09-10T22:54:13.886Z,24.40
2023-09-10T22:56:41.812Z,24.40
2023-09-10T22:59:09.029Z,24.40
2023-09-10T23:01:37.208Z,24.30
2023-09-10T23:04:04.462Z,24.30
2023-09-10T23:06:31.734Z,24.40
2023-09-10T23:08:58.815Z,24.30
2023-09-10T23:11:25.955Z,24.30
2023-09-10T23:13:53.096Z,24.30
2023-09-10T23:16:21.429Z,24.30
2023-09-10T23:18:48.551Z,24.30
2023-09-10T23:21:15.766Z,24.30
2023-09-10T23:23:44.325Z,24.20
2023-09-10T23:26:11.576Z,24.20
2023-09-10T23:28:39.025Z,24.20
2023-09-10T23:31:07.935Z,24.20
2023-09-10T23:33:35.271Z,24.20
2023-09-10T23:36:03.271Z,24.20
2023-09-10T23:38:30.410Z,24.20
2023-09-10T23:40:59.221Z,24.20
2023-09-10T23:43:27.019Z,24.20
2023-09-10T23:45:54.297Z,24.20
2023-09-10T23:48:21.582Z,24.20
2023-09-10T23:50:48.856Z,24.20
2023-09-10T23:53:16.051Z,24.20
2023-09-10T23:55:43.284Z,24.20
2023-09-10T23:58:10.582Z,24.20
